Terminal Aerodrome Forecast
Issued by NWS

Home | Current Version | Previous Version | Text Only | Print | Product List | Glossary On
Versions: 1 2 3 4 5 6 7 8 9 10 11 12 13 14 15 16 17 18 19
000
FTAK31 PANC 301521 AAA
TAFADQ
TAF AMD
PADQ 301521Z 3015/0112 04025G37KT 5SM -RA BR SCT007 BKN015 OVC025
     FM301800 04022G29KT 3SM -RA BR BKN007 OVC015
     FM302300 05011KT P6SM -SHRA BKN025 OVC035
     FM010900 05008KT 6SM -RA BR OVC015=

USA.gov is the U.S. government's official web portal to all federal, state and local government web resources and services.